Latest Weather Observations for Hay Point

IDQ60801

Issued at 12:52 am EST Wednesday 20 March 2019 (issued every 10 minutes, with the page automatically refreshed every 10 minutes)

About weather observations | Map of weather stations | Latest weather observations for QLD | Other Formats
Station Details ID: 033317 Name: HAY POINT Lat: -21.29 Lon: 149.30 Height: 7.0 m
Data from the previous 72 hours. | See also: Recent months for locations in Queensland
Date/Time
EST
Temp
°C
App
Temp
°C
Dew
Point
°C
Rel
Hum
%
Delta-T
°C
Wind Press
QNH
hPa
Press
MSL
hPa
Rain since
9am
mm
Dir  Spd
km/h
Gust
km/h
Spd
kts
Gust
kts
20/12:30am - - - - - N 17 20 9 11 - - -
20/12:00am - - - - - N 17 19 9 10 - - -
 
Date/Time
EST
Temp
°C
App
Temp
°C
Dew
Point
°C
Rel
Hum
%
Delta-T
°C
Wind Press
QNH
hPa
Press
MSL
hPa
Rain since
9am
mm
Dir  Spd
km/h
Gust
km/h
Spd
kts
Gust
kts
19/11:30pm - - - - - N 20 24 11 13 - - -
19/11:00pm - - - - - NNE 17 19 9 10 - - -
19/10:30pm - - - - - NNE 19 22 10 12 - - -
19/10:00pm - - - - - NE 20 24 11 13 - - -
19/09:30pm - - - - - NE 19 20 10 11 - - -
19/09:00pm - - - - - NE 19 22 10 12 - - -
19/08:30pm - - - - - NE 20 22 11 12 - - -
19/08:00pm - - - - - NE 22 26 12 14 - - -
19/07:30pm - - - - - NE 22 28 12 15 - - -
19/07:00pm - - - - - NE 24 28 13 15 - - -
19/06:30pm - - - - - NE 19 22 10 12 - - -
19/06:00pm - - - - - ENE 17 20 9 11 - - -
19/05:30pm - - - - - E 17 19 9 10 - - -
19/05:00pm - - - - - ENE 17 22 9 12 - - -
19/04:30pm - - - - - ENE 19 22 10 12 - - -
19/04:00pm - - - - - ENE 17 19 9 10 - - -
19/03:30pm - - - - - ENE 17 19 9 10 - - -
19/03:00pm - - - - - ENE 17 19 9 10 - - -
19/02:30pm - - - - - ENE 17 19 9 10 - - -
19/02:00pm - - - - - ENE 13 17 7 9 - - -
19/01:30pm - - - - - ENE 13 17 7 9 - - -
19/01:00pm - - - - - ENE 15 17 8 9 - - -
19/12:30pm - - - - - ENE 13 15 7 8 - - -
19/12:00pm - - - - - E 13 17 7 9 - - -
19/11:30am - - - - - ENE 17 19 9 10 - - -
19/11:00am - - - - - NE 19 22 10 12 - - -
19/10:30am - - - - - NE 19 22 10 12 - - -
19/10:00am - - - - - NE 20 24 11 13 - - -
19/09:30am - - - - - ENE 20 24 11 13 - - -
19/09:00am - - - - - ENE 19 22 10 12 - - -
19/08:30am - - - - - NE 20 22 11 12 - - -
19/08:00am - - - - - ENE 15 19 8 10 - - -
19/07:30am - - - - - S 9 13 5 7 - - -
19/07:00am - - - - - S 9 13 5 7 - - -
19/06:30am - - - - - SSW 9 11 5 6 - - -
19/06:00am - - - - - SSW 11 13 6 7 - - -
19/05:30am - - - - - SSW 13 13 7 7 - - -
19/05:00am - - - - - SSW 13 15 7 8 - - -
19/04:30am - - - - - SSW 11 15 6 8 - - -
19/04:00am - - - - - SSW 15 17 8 9 - - -
19/03:30am - - - - - SSW 15 17 8 9 - - -
19/03:00am - - - - - SSW 11 13 6 7 - - -
19/02:30am - - - - - SSW 15 17 8 9 - - -
19/02:00am - - - - - SSE 13 19 7 10 - - -
19/01:30am - - - - - S 2 9 1 5 - - -
19/01:00am - - - - - NE 9 13 5 7 - - -
19/12:30am - - - - - NE 7 9 4 5 - - -
19/12:00am - - - - - NNE 9 11 5 6 - - -
 
Date/Time
EST
Temp
°C
App
Temp
°C
Dew
Point
°C
Rel
Hum
%
Delta-T
°C
Wind Press
QNH
hPa
Press
MSL
hPa
Rain since
9am
mm
Dir  Spd
km/h
Gust
km/h
Spd
kts
Gust
kts
18/11:30pm - - - - - NE 13 17 7 9 - - -
18/11:00pm - - - - - NNE 17 19 9 10 - - -
18/10:30pm - - - - - NE 15 17 8 9 - - -
18/10:00pm - - - - - NE 15 19 8 10 - - -
18/09:30pm - - - - - NE 15 19 8 10 - - -
18/09:00pm - - - - - NE 15 17 8 9 - - -
18/08:30pm - - - - - ENE 17 19 9 10 - - -
18/08:00pm - - - - - ENE 15 17 8 9 - - -
18/07:30pm - - - - - ENE 15 17 8 9 - - -
18/07:00pm - - - - - E 15 17 8 9 - - -
18/06:30pm - - - - - E 13 15 7 8 - - -
18/06:00pm - - - - - E 13 15 7 8 - - -
18/05:30pm - - - - - ENE 15 17 8 9 - - -
18/05:00pm - - - - - ENE 15 19 8 10 - - -
18/04:30pm - - - - - ENE 15 19 8 10 - - -
18/04:00pm - - - - - ENE 15 19 8 10 - - -
18/03:30pm - - - - - ENE 17 19 9 10 - - -
18/03:00pm - - - - - E 15 19 8 10 - - -
18/02:30pm - - - - - E 15 19 8 10 - - -
18/02:00pm - - - - - E 17 19 9 10 - - -
18/01:30pm - - - - - E 17 20 9 11 - - -
18/01:00pm - - - - - E 17 19 9 10 - - -
18/12:30pm - - - - - E 15 19 8 10 - - -
18/12:00pm - - - - - ESE 15 19 8 10 - - -
18/11:30am - - - - - ESE 15 19 8 10 - - -
18/11:00am - - - - - E 15 17 8 9 - - -
18/10:30am - - - - - E 17 19 9 10 - - -
18/10:00am - - - - - E 17 22 9 12 - - -
18/09:30am - - - - - E 19 22 10 12 - - -
18/09:00am - - - - - SE 9 9 5 5 - - -
18/08:30am - - - - - SW 6 9 3 5 - - -
18/08:00am - - - - - SSW 9 11 5 6 - - -
18/07:30am - - - - - SSW 11 13 6 7 - - -
18/07:00am - - - - - SSW 9 11 5 6 - - -
18/06:30am - - - - - SSW 9 13 5 7 - - -
18/06:00am - - - - - SSW 13 13 7 7 - - -
18/05:30am - - - - - SSW 9 13 5 7 - - -
18/05:00am - - - - - S 9 11 5 6 - - -
18/04:30am - - - - - SSW 7 7 4 4 - - -
18/04:00am - - - - - SSW 9 9 5 5 - - -
18/03:30am - - - - - SSW 7 9 4 5 - - -
18/03:00am - - - - - SSW 11 11 6 6 - - -
18/02:30am - - - - - SSW 7 7 4 4 - - -
18/02:00am - - - - - SW 7 7 4 4 - - -
18/01:30am - - - - - CALM 0 4 0 2 - - -
18/01:00am - - - - - SW 9 9 5 5 - - -
18/12:30am - - - - - SW 7 9 4 5 - - -
18/12:00am - - - - - N 7 7 4 4 - - -
 
Date/Time
EST
Temp
°C
App
Temp
°C
Dew
Point
°C
Rel
Hum
%
Delta-T
°C
Wind Press
QNH
hPa
Press
MSL
hPa
Rain since
9am
mm
Dir  Spd
km/h
Gust
km/h
Spd
kts
Gust
kts
17/11:30pm - - - - - NNE 9 13 5 7 - - -
17/11:00pm - - - - - NNE 13 15 7 8 - - -
17/10:30pm - - - - - NNE 13 15 7 8 - - -
17/10:00pm - - - - - NNE 13 15 7 8 - - -
17/09:30pm - - - - - NNE 15 17 8 9 - - -
17/09:00pm - - - - - NNE 15 19 8 10 - - -
17/08:30pm - - - - - NNE 17 17 9 9 - - -
17/08:00pm - - - - - NE 19 20 10 11 - - -
17/07:30pm - - - - - NE 20 26 11 14 - - -
17/07:00pm - - - - - NE 19 22 10 12 - - -
17/06:30pm - - - - - NE 17 20 9 11 - - -
17/06:00pm - - - - - NE 17 20 9 11 - - -
17/05:30pm - - - - - ENE 20 26 11 14 - - -
17/05:00pm - - - - - NE 20 26 11 14 - - -
17/04:30pm - - - - - ENE 20 24 11 13 - - -
17/04:00pm - - - - - ENE 19 20 10 11 - - -
17/03:30pm - - - - - ENE 17 19 9 10 - - -
17/03:00pm - - - - - ENE 17 20 9 11 - - -
17/02:30pm - - - - - ENE 17 19 9 10 - - -
17/02:00pm - - - - - NE 15 17 8 9 - - -
17/01:30pm - - - - - NE 17 19 9 10 - - -
17/01:00pm - - - - - NE 17 17 9 9 - - -
17/12:30pm - - - - - NE 15 17 8 9 - - -
17/12:00pm - - - - - NE 11 13 6 7 - - -
17/11:30am - - - - - NE 13 17 7 9 - - -
17/11:00am - - - - - NE 15 17 8 9 - - -
17/10:30am - - - - - NE 19 22 10 12 - - -
17/10:00am - - - - - NE 17 20 9 11 - - -
17/09:30am - - - - - NNE 19 20 10 11 - - -
17/09:00am - - - - - NE 17 20 9 11 - - -
17/08:30am - - - - - NNE 17 19 9 10 - - -
17/08:00am - - - - - NNE 20 24 11 13 - - -
17/07:30am - - - - - NNE 22 28 12 15 - - -
17/07:00am - - - - - NE 24 30 13 16 - - -
17/06:30am - - - - - NE 26 30 14 16 - - -
17/06:00am - - - - - NE 24 30 13 16 - - -
17/05:30am - - - - - NNE 19 24 10 13 - - -
17/05:00am - - - - - NNE 20 26 11 14 - - -
17/04:30am - - - - - NNE 24 28 13 15 - - -
17/04:00am - - - - - NNE 24 28 13 15 - - -
17/03:30am - - - - - NNE 26 32 14 17 - - -
17/03:00am - - - - - NNE 28 30 15 16 - - -
17/02:30am - - - - - NNE 22 26 12 14 - - -
17/02:00am - - - - - NNE 24 28 13 15 - - -
17/01:30am - - - - - NE 28 32 15 17 - - -
17/01:00am - - - - - NNE 24 28 13 15 - - -

Other formats

Comma delimited format used in spreadsheet applications
http://www.bom.gov.au/fwo/IDQ60801/IDQ60801.99367.axf

JavaScript Object Notation format (JSON) in row-major order
http://www.bom.gov.au/fwo/IDQ60801/IDQ60801.99367.json

Data quality

Most of these data are generated automatically and are frequently updated. Quality checks on data are not normally performed. It is possible for incorrect values to appear. Refer to information at About Latest Weather Observations and please check the disclaimer before using these data.